Portada
METAR-TAF:

METAR-TAF

Aeropuertos :

Aeropuerto de Uagadugú

Uagadugú, Burkina Faso

latitud: 12-21N, longitud: 001-31W, altitud: 316 m

Observación

El informe se hizo hace 21 minutos, a las 06:00 UTC
Viento 7 kt del norte
Temperatura 23°C
Humedad 17%
Presión 1012 hPa
Visibilidad: 8000 m

METAR: DFFD 190600Z 36007KT 8000 NSC 23/M03 Q1012 TEMPO 4000 DU

Hora: 06:21 (06:21 UTC)

Pronóstico

El informe se hizo hace 1 hora y 21 minutos, a las 05:00 UTC
Pronóstico válido del 19 a las 06 UTC al 20 a las 12 UTC
Viento 8 kt con dirección variable
Visibilidad: 8000 m
Temporalmente
del 19 a las 06 UTC al 19 a las 10 UTC
Visibilidad: 1400 m
Polvo extendido
Temporalmente
del 19 a las 17 UTC al 19 a las 21 UTC
Visibilidad: 4000 m
Polvo extendido
Temporalmente
del 20 a las 06 UTC al 20 a las 10 UTC
Visibilidad: 2000 m
Polvo extendido

TAF: DFFD 190500Z 1906/2012 VRB08KT 8000 NSC TEMPO 1906/1910 1400 DU TEMPO 1917/1921 4000 DU TEMPO 2006/2010 2000 DU

Observaciones y pronósticos meteorológicos de más de 4000 aeropuertos (mensajes METAR y TAF).

Los puntos amarillos y rojos representan las estaciones disponibles.

Ponga el ratón en el punto deseado para ver el nombre de la estación.

Haga clic para ver las observaciones y los pronósticos meteorológicos.

Para cambiar el mapa : haga clic en los botones verdes con una cruz de color negro para hacer un zoom, en el botón verde con un guión para alejar o en las flechas verdes para mapas adyacentes.


METAR-TAF: